Lenox, Michigan
Current Conditions -  °F | °C
As of 10:55 AM on Monday 24 Nov 2014 (Local Time) from KMTC Reporting Station
Light Rain Light Rain  
Wind Chill: 53°   Ceiling: 2600
Heat Index: 53°   Visibility: 7mi
Dew Point: 53°   Wind: 13mph
Humidity: 100%   Direction: 160°SSE
Pressure: 29.1"   Gusts: NA
Location:  42.7851°N, 82.803°W
Report Text: KMTC 241555Z 16011KT 7SM -RA SCT019 BKN026 OVC040 12/12 A2910 RMK PK WND 21026/29 SLP864 T01180118
Loading
Personal Weather Stations






























Interactive Weather Map New forecast layout! Learn more

10-Day Weather Forecast

Advertisements
Track Severe Weather on mobile